Nearby METAR Reports

 

KTEB - Teterboro, New Jersey, USA
Distance from station: ENE 2mi, 4km
Updated: 01/19/2020 11:51am
Partly cloudy
Partly cloudy
 Wind from WNW
Wind: WNW 17 mph , 28 km/h, Gust: 24 mph , 39 km/h
Temperature: 45°F , 7°C
Wind Chill: 38°F , 3°C
Dew Point: 30°F , -1°C
Humidity: 57%
Barometer: 29.73 inHg , 1006.8 hPa
Clouds: Partly cloudy
Visibility: 10 miles , 16 km
Cloud details: Few Clouds 3600 ft
Partly cloudy 5500 ft
2020/01/19 16:51 KTEB 191651Z 29015G21KT 10SM FEW036 SCT055 07/M01 A2973 RMK AO2 SLP068 T00671006
KNYC - Nyc/Central Park, New York, USA
Distance from station: SE 8mi, 13km
Updated: 01/19/2020 11:51am
Partly cloudy
Partly cloudy
 Wind from W
Wind: W 14 mph , 22 km/h, Gust: 26 mph , 43 km/h
Temperature: 43°F , 6°C
Wind Chill: 36°F , 2°C
Dew Point: 27°F , -3°C
Humidity: 53%
Barometer: 29.75 inHg , 1007.5 hPa
Clouds: Partly cloudy
Visibility: 10 miles , 16 km
Cloud details: Partly cloudy 3500 ft
2020/01/19 16:51 KNYC 191651Z AUTO 28012G23KT 10SM SCT035 06/M03 A2975 RMK AO2 SLP067 T00561033
 
KCDW - Caldwell, New Jersey, USA
Distance from station: WNW 10mi, 17km
Updated: 01/19/2020 11:53am
Few Clouds
Few Clouds
 Wind from NNW
Wind: NNW 14 mph , 22 km/h, Gust: 26 mph , 43 km/h
Temperature: 43°F , 6°C
Wind Chill: 36°F , 2°C
Dew Point: 25°F , -4°C
Humidity: 49%
Barometer: 29.76 inHg , 1007.8 hPa
Clouds: Few Clouds
Visibility: 10 miles , 16 km
Cloud details: Few Clouds 5000 ft
2020/01/19 16:53 KCDW 191653Z 33012G23KT 10SM FEW050 06/M04 A2976 RMK AO2 SLP082 T00561039
KLGA - Nyc/La Guardia, New York, USA
Distance from station: ESE 12mi, 19km
Updated: 01/19/2020 11:51am
Mostly cloudy
Mostly cloudy
 Wind from W
Wind: W 20 mph , 31 km/h, Gust: 28 mph , 44 km/h
Temperature: 43°F , 6°C
Wind Chill: 34°F , 1°C
Dew Point: 27°F , -3°C
Humidity: 53%
Barometer: 29.74 inHg , 1007.1 hPa
Clouds: Mostly cloudy
Visibility: 10 miles , 16 km
Cloud details: Few Clouds 3600 ft
Partly cloudy 5000 ft
Mostly cloudy 7000 ft
Mostly cloudy 22000 ft
2020/01/19 16:51 KLGA 191651Z 28017G24KT 10SM FEW036 SCT050 BKN070 BKN220 06/M03 A2974 RMK AO2 SLP070 T00561028 $
 
KEWR - Newark, New Jersey, USA
Distance from station: SSW 12mi, 20km
Updated: 01/19/2020 11:51am
Mostly cloudy
Mostly cloudy
 Wind from WNW
Wind: WNW 22 mph , 35 km/h, Gust: 26 mph , 43 km/h
Temperature: 41°F , 5°C
Wind Chill: 31°F , -1°C
Dew Point: 28°F , -2°C
Humidity: 61%
Barometer: 29.76 inHg , 1007.8 hPa
Clouds: Mostly cloudy
Visibility: 10 miles , 16 km
Cloud details: Partly cloudy 3500 ft
Mostly cloudy 4500 ft
Mostly cloudy 6500 ft
Mostly cloudy 25000 ft
2020/01/19 16:51 KEWR 191651Z 29019G23KT 10SM SCT035 BKN045 BKN065 BKN250 05/M02 A2976 RMK AO2 PK WND 29026/1602 SLP076 T00501022 $
KMMU - Morristown Muni, New Jersey, USA
Distance from station: WSW 18mi, 29km
Updated: 01/19/2020 11:45am
Overcast
Overcast
 Wind from WNW
Wind: WNW 14 mph , 22 km/h, Gust: 18 mph , 30 km/h
Temperature: 37°F , 3°C
Wind Chill: 28°F , -2°C
Dew Point: 30°F , -1°C
Humidity: 75%
Barometer: 29.78 inHg , 1008.5 hPa
Clouds: Overcast
Visibility: 10 miles , 16 km
Cloud details: Partly cloudy 3000 ft
Mostly cloudy 3600 ft
Overcast 6000 ft
2020/01/19 16:45 KMMU 191645Z 30012G16KT 10SM SCT030 BKN036 OVC060 03/M01 A2978
 
KJFK - Nyc/Jfk Arpt, New York, USA
Distance from station: SE 23mi, 36km
Updated: 01/19/2020 11:51am
Mostly cloudy
Mostly cloudy
 Wind from WNW
Wind: WNW 21 mph , 33 km/h, Gust: 29 mph , 46 km/h
Temperature: 45°F , 7°C
Wind Chill: 37°F , 3°C
Dew Point: 30°F , -1°C
Humidity: 57%
Barometer: 29.75 inHg , 1007.5 hPa
Clouds: Mostly cloudy
Visibility: 10 miles , 16 km
Cloud details: Few Clouds 3900 ft
Partly cloudy 5000 ft
Mostly cloudy 8000 ft
Mostly cloudy 25000 ft
2020/01/19 16:51 KJFK 191651Z 30018G25KT 10SM FEW039 SCT050 BKN080 BKN250 07/M01 A2975 RMK AO2 PK WND 29029/1616 SLP073 T00721011 $
KHPN - White Plains, New York, USA
Distance from station: NE 25mi, 40km
Updated: 01/19/2020 11:56am
Mostly cloudy
Mostly cloudy
 Wind from WNW
Wind: WNW 16 mph , 26 km/h, Gust: 20 mph , 31 km/h
Temperature: 37°F , 3°C
Wind Chill: 28°F , -2°C
Dew Point: 25°F , -4°C
Humidity: 60%
Barometer: 29.70 inHg , 1005.8 hPa
Clouds: Mostly cloudy
Visibility: 10 miles , 16 km
Cloud details: Partly cloudy 4100 ft
Mostly cloudy 6000 ft
2020/01/19 16:56 KHPN 191656Z 29014G17KT 10SM SCT041 BKN060 03/M04 A2970 RMK AO2 SLP065 T00331039
 
KSMQ - Somerville, New Jersey, USA
Distance from station: WSW 34mi, 55km
Updated: 01/19/2020 11:53am
Overcast
Overcast
 Wind from WNW
Wind: WNW 8 mph , 13 km/h
Temperature: 39°F , 4°C
Wind Chill: 33°F , 1°C
Dew Point: 27°F , -3°C
Humidity: 61%
Barometer: 29.77 inHg , 1008.1 hPa
Clouds: Overcast
Visibility: 10 miles , 16 km
Cloud details: Overcast 3600 ft
2020/01/19 16:53 KSMQ 191653Z AUTO 30007KT 10SM OVC036 04/M03 A2977 RMK AO2 SLP083 T00391028
K12N - Andover, New Jersey, USA
Distance from station: WNW 36mi, 57km
Updated: 01/19/2020 11:54am

 Wind from WNW
Wind: WNW 9 mph , 15 km/h
Temperature: 37°F , 3°C
Wind Chill: 30°F , -1°C
Dew Point: 28°F , -2°C
Humidity: 70%
Barometer: 29.75 inHg , 1007.5 hPa
2020/01/19 16:54 K12N 191654Z AUTO 29008KT 240V340 03/M02 A2975 RMK AO1 SLP084 T00331022
 
KFRG - Farmingdale, New York, USA
Distance from station: ESE 36mi, 58km
Updated: 01/19/2020 11:53am
Mostly cloudy
Mostly cloudy
 Wind from W
Wind: W 21 mph , 33 km/h, Gust: 25 mph , 41 km/h
Temperature: 46°F , 8°C
Wind Chill: 38°F , 3°C
Dew Point: 28°F , -2°C
Humidity: 50%
Barometer: 29.72 inHg , 1006.4 hPa
Clouds: Mostly cloudy
Visibility: 10 miles , 16 km
Cloud details: Few Clouds 3600 ft
Mostly cloudy 4500 ft
2020/01/19 16:53 KFRG 191653Z 28018G22KT 10SM FEW036 BKN045 08/M02 A2972 RMK AO2 SLP063 T00781017
KFWN - Sussex, New Jersey, USA
Distance from station: NW 37mi, 60km
Updated: 01/19/2020 11:53am
Mostly cloudy
Mostly cloudy
 Wind from varies
Wind: varies 6 mph , 9 km/h
Temperature: 41°F , 5°C
Wind Chill: 37°F , 3°C
Dew Point: 25°F , -4°C
Humidity: 53%
Barometer: 29.73 inHg , 1006.8 hPa
Clouds: Mostly cloudy
Visibility: 10 miles , 16 km
Cloud details: Few Clouds 4200 ft
Partly cloudy 4900 ft
Mostly cloudy 7500 ft
2020/01/19 16:53 KFWN 191653Z AUTO VRB05KT 10SM FEW042 SCT049 BKN075 05/M04 A2973 RMK AO2 SLP070 T00501044
 
KSWF - Newburgh/Stewart, New York, USA
Distance from station: 0 45mi, 72km
Updated: 01/19/2020 11:45am
Mostly cloudy
Mostly cloudy
 Wind from WNW
Wind: WNW 18 mph , 30 km/h
Temperature: 39°F , 4°C
Wind Chill: 30°F , -1°C
Dew Point: 28°F , -2°C
Humidity: 65%
Barometer: 29.71 inHg , 1006.1 hPa
Clouds: Mostly cloudy
Visibility: 10 miles , 16 km
Cloud details: Mostly cloudy 4000 ft
2020/01/19 16:45 KSWF 191645Z 29016KT 10SM BKN040 04/M02 A2971
KMGJ - Montgomery, New York, USA
Distance from station: NNW 47mi, 75km
Updated: 01/19/2020 11:54am
Few Clouds
Few Clouds
 Wind from NW
Wind: NW 18 mph , 30 km/h, Gust: 28 mph , 44 km/h
Temperature: 39°F , 4°C
Wind Chill: 30°F , -1°C
Dew Point: 21°F , -6°C
Humidity: 48%
Barometer: 29.70 inHg , 1005.8 hPa
Clouds: Few Clouds
Visibility: 10 miles , 16 km
Cloud details: Few Clouds 4400 ft
Few Clouds 6000 ft
2020/01/19 16:54 KMGJ 191654Z AUTO 31016G24KT 10SM FEW044 FEW060 04/M06 A2970 RMK AO2 SLP061 T00441061
 
KBLM - Belmar/Farmdale, New Jersey, USA
Distance from station: S 47mi, 76km
Updated: 01/19/2020 11:56am
Few Clouds
Few Clouds
 Wind from WNW
Wind: WNW 20 mph , 31 km/h, Gust: 24 mph , 39 km/h
Temperature: 45°F , 7°C
Wind Chill: 37°F , 3°C
Dew Point: 27°F , -3°C
Humidity: 49%
Barometer: 29.76 inHg , 1007.8 hPa
Clouds: Few Clouds
Visibility: 10 miles , 16 km
Cloud details: Few Clouds 4000 ft
2020/01/19 16:56 KBLM 191656Z AUTO 29017G21KT 10SM FEW040 07/M03 A2976 RMK AO2 PK WND 28027/1618 SLP080 T00671028
KDXR - Danbury, Connecticut, USA
Distance from station: NE 47mi, 76km
Updated: 01/19/2020 11:53am
Mostly cloudy
Mostly cloudy
 Wind from WNW
Wind: WNW 13 mph , 20 km/h, Gust: 22 mph , 35 km/h
Temperature: 39°F , 4°C
Wind Chill: 31°F , -1°C
Dew Point: 25°F , -4°C
Humidity: 56%
Barometer: 29.71 inHg , 1006.1 hPa
Clouds: Mostly cloudy
Visibility: 10 miles , 16 km
Cloud details: Mostly cloudy 3600 ft
2020/01/19 16:53 KDXR 191653Z 29011G19KT 260V320 10SM BKN036 04/M04 A2971 RMK AO2 SLP062 T00391039 $
 
KISP - Islip, New York, USA
Distance from station: E 52mi, 83km
Updated: 01/19/2020 11:56am
Mostly cloudy
Mostly cloudy
 Wind from NW
Wind: NW 15 mph , 24 km/h, Gust: 26 mph , 43 km/h
Temperature: 45°F , 7°C
Wind Chill: 38°F , 3°C
Dew Point: 30°F , -1°C
Humidity: 57%
Barometer: 29.70 inHg , 1005.8 hPa
Clouds: Mostly cloudy
Visibility: 10 miles , 16 km
Cloud details: Mostly cloudy 3700 ft
Mostly cloudy 7500 ft
Mostly cloudy 25000 ft
2020/01/19 16:56 KISP 191656Z 31013G23KT 10SM BKN037 BKN075 BKN250 07/M01 A2970 RMK AO2 PK WND 31027/1616 SLP058 T00721011 $
KBDR - Bridgeport, Connecticut, USA
Distance from station: ENE 54mi, 87km
Updated: 01/19/2020 11:52am
Clear
Clear
 Wind from W
Wind: W 16 mph , 26 km/h, Gust: 23 mph , 37 km/h
Temperature: 45°F , 7°C
Wind Chill: 38°F , 3°C
Dew Point: 28°F , -2°C
Humidity: 53%
Barometer: 29.70 inHg , 1005.8 hPa
Clouds: Clear
Visibility: 10 miles , 16 km
2020/01/19 16:52 KBDR 191652Z 28014G20KT 10SM CLR 07/M02 A2970 RMK AO2 SLP056 T00671022
 
KTTN - Trenton, New Jersey, USA
Distance from station: SW 55mi, 88km
Updated: 01/19/2020 11:53am
Partly cloudy
Partly cloudy
 Wind from WNW
Wind: WNW 22 mph , 35 km/h, Gust: 30 mph , 48 km/h
Temperature: 41°F , 5°C
Wind Chill: 31°F , -1°C
Dew Point: 27°F , -3°C
Humidity: 57%
Barometer: 29.79 inHg , 1008.8 hPa
Clouds: Partly cloudy
Visibility: 10 miles , 16 km
Cloud details: Partly cloudy 3700 ft
2020/01/19 16:53 KTTN 191653Z 30019G26KT 10SM SCT037 05/M03 A2979 RMK AO2 PK WND 29028/1621 SLP083 T00501033 $
KPOU - Poughkeepsie, New York, USA
Distance from station: N 55mi, 89km
Updated: 01/19/2020 11:53am
Few Clouds
Few Clouds
 Wind from WNW
Wind: WNW 16 mph , 26 km/h, Gust: 24 mph , 39 km/h
Temperature: 39°F , 4°C
Wind Chill: 30°F , -1°C
Dew Point: 27°F , -3°C
Humidity: 61%
Barometer: 29.70 inHg , 1005.8 hPa
Clouds: Few Clouds
Visibility: 10 miles , 16 km
Cloud details: Few Clouds 6000 ft
2020/01/19 16:53 KPOU 191653Z 29014G21KT 10SM FEW060 04/M03 A2970 RMK AO2 PK WND 29027/1604 SLP056 T00441033
 
KNEL - Lakehurst Nas, New Jersey, USA
Distance from station: SSW 59mi, 95km
Updated: 01/19/2020 12:00pm
Clear
Clear
 Wind from WNW
Wind: WNW 17 mph , 28 km/h, Gust: 33 mph , 54 km/h
Temperature: 43°F , 6°C
Wind Chill: 35°F , 2°C
Dew Point: 25°F , -4°C
Humidity: 49%
Barometer: 29.77 inHg , 1008.1 hPa
Clouds: Clear
Visibility: 10 miles , 16 km
2020/01/19 17:00 KNEL 191700Z AUTO 30015G29KT 10SM CLR 06/M04 A2977 RMK AO2 PK WND 30029/1653 SLP079 T00611039 $
KWRI - Wrightst/Mcguire, New Jersey, USA
Distance from station: SSW 63mi, 102km
Updated: 01/19/2020 11:56am
Clear
Clear
 Wind from WNW
Wind: WNW 15 mph , 24 km/h, Gust: 29 mph , 46 km/h
Temperature: 45°F , 7°C
Wind Chill: 38°F , 3°C
Dew Point: 25°F , -4°C
Humidity: 46%
Barometer: 29.78 inHg , 1008.5 hPa
Clouds: Clear
Visibility: 10 miles , 16 km
2020/01/19 16:56 KWRI 191656Z 30013G25KT 10SM CLR 07/M04 A2978 RMK AO2A PK WND 28030/14 SLP085 T00661042 $
 
KHWV - Shirley, New York, USA
Distance from station: E 64mi, 103km
Updated: 01/19/2020 11:56am
Partly cloudy
Partly cloudy
 Wind from WNW
Wind: WNW 20 mph , 31 km/h, Gust: 29 mph , 46 km/h
Temperature: 45°F , 7°C
Wind Chill: 37°F , 3°C
Dew Point: 28°F , -2°C
Humidity: 53%
Barometer: 29.70 inHg , 1005.8 hPa
Clouds: Partly cloudy
Visibility: 10 miles , 16 km
Cloud details: Partly cloudy 3700 ft
2020/01/19 16:56 KHWV 191656Z AUTO 30017G25KT 10SM SCT037 07/M02 A2970 RMK AO2 SLP059 T00721022 TSNO
KMJX - Toms River, New Jersey, USA
Distance from station: S 64mi, 104km
Updated: 01/19/2020 11:56am
Few Clouds
Few Clouds
 Wind from WNW
Wind: WNW 18 mph , 30 km/h, Gust: 25 mph , 41 km/h
Temperature: 45°F , 7°C
Wind Chill: 37°F , 3°C
Dew Point: 27°F , -3°C
Humidity: 49%
Barometer: 29.78 inHg , 1008.5 hPa
Clouds: Few Clouds
Visibility: 10 miles , 16 km
Cloud details: Few Clouds 4600 ft
2020/01/19 16:56 KMJX 191656Z AUTO 29016G22KT 10SM FEW046 07/M03 A2978 RMK AO2 PK WND 30029/1627 SLPNO P0001 T00671028
 
KDYL - Doylestown, Pennsylvania, USA
Distance from station: SW 65mi, 104km
Updated: 01/19/2020 11:54am
Mostly cloudy
Mostly cloudy
 Wind from NW
Wind: NW 16 mph , 26 km/h, Gust: 31 mph , 50 km/h
Temperature: 39°F , 4°C
Wind Chill: 30°F , -1°C
Dew Point: 25°F , -4°C
Humidity: 56%
Barometer: 29.79 inHg , 1008.8 hPa
Clouds: Mostly cloudy
Visibility: 10 miles , 16 km
Cloud details: Mostly cloudy 3400 ft
Mostly cloudy 6500 ft
2020/01/19 16:54 KDYL 191654Z AUTO 31014G27KT 10SM BKN034 BKN065 04/M04 A2979 RMK AO2 PK WND 30028/1557 SLP092 T00441044
KOXC - Oxford/Waterbury, Connecticut, USA
Distance from station: NE 65mi, 105km
Updated: 01/19/2020 11:51am
Mostly cloudy
Mostly cloudy
 Wind from WNW
Wind: WNW 14 mph , 22 km/h, Gust: 20 mph , 31 km/h
Temperature: 39°F , 4°C
Wind Chill: 31°F , -1°C
Dew Point: 27°F , -3°C
Humidity: 61%
Barometer: 29.68 inHg , 1005.1 hPa
Clouds: Mostly cloudy
Visibility: 10 miles , 16 km
Cloud details: Mostly cloudy 3300 ft
2020/01/19 16:51 KOXC 191651Z 29012G17KT 10SM BKN033 04/M03 A2968 RMK AO2 SLP066 T00441028
 
KMSV - Monticello, New York, USA
Distance from station: NNW 69mi, 111km
Updated: 01/19/2020 11:56am
Overcast
Overcast
 Wind from WNW
Wind: WNW 13 mph , 20 km/h, Gust: 25 mph , 41 km/h
Temperature: 32°F , 0°C
Wind Chill: 22°F , -6°C
Dew Point: 21°F , -6°C
Humidity: 64%
Barometer: 29.71 inHg , 1006.1 hPa
Clouds: Overcast
Visibility: 10 miles , 16 km
Cloud details: Mostly cloudy 3700 ft
Overcast 4400 ft
2020/01/19 16:56 KMSV 191656Z AUTO 29011G22KT 10SM UP BKN037 OVC044 00/M06 A2971 RMK AO2 RAB45E48UPB48 SLP078 P0000 T00001056 FZRANO
KHVN - New Haven/Tweed, Connecticut, USA
Distance from station: ENE 70mi, 112km
Updated: 01/19/2020 11:53am
Clear
Clear
 Wind from W
Wind: W 10 mph , 17 km/h, Gust: 20 mph , 31 km/h
Temperature: 45°F , 7°C
Wind Chill: 40°F , 4°C
Dew Point: 28°F , -2°C
Humidity: 53%
Barometer: 29.69 inHg , 1005.4 hPa
Clouds: Clear
Visibility: 10 miles , 16 km
2020/01/19 16:53 KHVN 191653Z 28009G17KT 10SM CLR 07/M02 A2969 RMK AO2 SLP052 T00721022
 
KMPO - Mt. Pocono, Pennsylvania, USA
Distance from station: WNW 70mi, 113km
Updated: 01/19/2020 12:12pm
Mostly cloudy
Mostly cloudy
 Wind from W
Wind: W 16 mph , 26 km/h
Temperature: 30°F , -1°C
Wind Chill: 19°F , -7°C
Dew Point: 21°F , -6°C
Humidity: 69%
Barometer: 29.70 inHg , 1005.8 hPa
Clouds: Mostly cloudy
Visibility: 10 miles , 16 km
Cloud details: Partly cloudy 2400 ft
Mostly cloudy 3100 ft
Mostly cloudy 4500 ft
2020/01/19 17:12 KMPO 191712Z AUTO 27014KT 10SM SCT024 BKN031 BKN045 M01/M06 A2970 RMK AO2 T10111056
KPNE - Philadelphia/Ne, Pennsylvania, USA
Distance from station: SW 72mi, 116km
Updated: 01/19/2020 11:54am
Mostly cloudy
Mostly cloudy
 Wind from WNW
Wind: WNW 14 mph , 22 km/h, Gust: 30 mph , 48 km/h
Temperature: 45°F , 7°C
Wind Chill: 39°F , 4°C
Dew Point: 25°F , -4°C
Humidity: 46%
Barometer: 29.82 inHg , 1009.8 hPa
Clouds: Mostly cloudy
Visibility: 10 miles , 16 km
Cloud details: Mostly cloudy 4200 ft
2020/01/19 16:54 KPNE 191654Z 30012G26KT 10SM BKN042 07/M04 A2982 RMK AO2 PK WND 31030/1613 SLP099 T00721039 $
 
KABE - Allentown, Pennsylvania, USA
Distance from station: W 73mi, 117km
Updated: 01/19/2020 11:51am
Overcast
Overcast
 Wind from W
Wind: W 16 mph , 26 km/h, Gust: 23 mph , 37 km/h
Temperature: 37°F , 3°C
Wind Chill: 28°F , -2°C
Dew Point: 25°F , -4°C
Humidity: 60%
Barometer: 29.81 inHg , 1009.5 hPa
Clouds: Overcast
Visibility: 10 miles , 16 km
Cloud details: Partly cloudy 3200 ft
Overcast 7500 ft
2020/01/19 16:51 KABE 191651Z 28014G20KT 10SM SCT032 OVC075 03/M04 A2981 RMK AO2 SLP099 T00331044
KUKT - Quakertown Arp, Pennsylvania, USA
Distance from station: WSW 74mi, 119km
Updated: 01/19/2020 12:00pm
Mostly cloudy
Mostly cloudy
 Wind from SW
Wind: SW 14 mph , 22 km/h, Gust: 23 mph , 37 km/h
Temperature: 37°F , 3°C
Wind Chill: 28°F , -2°C
Dew Point: 25°F , -4°C
Humidity: 60%
Barometer: 29.81 inHg , 1009.5 hPa
Clouds: Mostly cloudy
Visibility: 10 miles , 16 km
Cloud details: Mostly cloudy 3300 ft
Mostly cloudy 3900 ft
Mostly cloudy 6000 ft
2020/01/19 17:00 KUKT 191700Z AUTO 23012G20KT 200V270 10SM BKN033 BKN039 BKN060 03/M04 A2981 RMK A01
 
KVAY - Mount Holly, New Jersey, USA
Distance from station: SSW 75mi, 120km
Updated: 01/19/2020 11:54am
Few Clouds
Few Clouds
 Wind from WNW
Wind: WNW 18 mph , 30 km/h, Gust: 35 mph , 56 km/h
Temperature: 41°F , 5°C
Wind Chill: 32°F , 0°C
Dew Point: 21°F , -6°C
Humidity: 45%
Barometer: 29.81 inHg , 1009.5 hPa
Clouds: Few Clouds
Visibility: 10 miles , 16 km
Cloud details: Few Clouds 5000 ft
2020/01/19 16:54 KVAY 191654Z AUTO 30016G30KT 10SM FEW050 05/M06 A2981 RMK AO2 PK WND 30030/1648 SLP094 T00501061 $
KXLL - Allentown Queen, Pennsylvania, USA
Distance from station: WSW 76mi, 122km
Updated: 01/19/2020 11:55am
Overcast
Overcast
 Wind from W
Wind: W 16 mph , 26 km/h, Gust: 25 mph , 41 km/h
Temperature: 36°F , 2°C
Wind Chill: 26°F , -3°C
Dew Point: 27°F , -3°C
Humidity: 70%
Barometer: 29.83 inHg , 1010.2 hPa
Clouds: Overcast
Visibility: 10 miles , 16 km
Cloud details: Mostly cloudy 3600 ft
Overcast 7000 ft
2020/01/19 16:55 KXLL 191655Z AUTO 27014G22KT 10SM BKN036 OVC070 02/M03 A2983 RMK AO2
 
KFOK - Westhampton Beac, New York, USA
Distance from station: E 77mi, 124km
Updated: 01/19/2020 11:53am
Clear
Clear
 Wind from WNW
Wind: WNW 17 mph , 28 km/h, Gust: 25 mph , 41 km/h
Temperature: 45°F , 7°C
Wind Chill: 38°F , 3°C
Dew Point: 28°F , -2°C
Humidity: 53%
Barometer: 29.70 inHg , 1005.8 hPa
Clouds: Clear
Visibility: 10 miles , 16 km
2020/01/19 16:53 KFOK 191653Z 29015G22KT 10SM CLR 07/M02 A2970 RMK AO2 PK WND 29026/1616 SLP057 T00721022
KLOM - Philly Wings F, Pennsylvania, USA
Distance from station: SW 79mi, 128km
Updated: 01/19/2020 11:55am
Partly cloudy
Partly cloudy
 Wind from WNW
Wind: WNW 12 mph , 19 km/h, Gust: 21 mph , 33 km/h
Temperature: 39°F , 4°C
Wind Chill: 32°F , 0°C
Dew Point: 25°F , -4°C
Humidity: 56%
Barometer: 29.82 inHg , 1009.8 hPa
Clouds: Partly cloudy
Visibility: 10 miles , 16 km
Cloud details: Partly cloudy 3900 ft
Partly cloudy 4600 ft
Partly cloudy 6000 ft
2020/01/19 16:55 KLOM 191655Z AUTO 29010G18KT 260V320 10SM SCT039 SCT046 SCT060 04/M04 A2982 RMK AO2 T00411041
 
KMMK - Meriden, Connecticut, USA
Distance from station: NE 80mi, 128km
Updated: 01/19/2020 11:53am
Mostly cloudy
Mostly cloudy
 Wind from NW
Wind: NW 14 mph , 22 km/h, Gust: 20 mph , 31 km/h
Temperature: 43°F , 6°C
Wind Chill: 36°F , 2°C
Dew Point: 27°F , -3°C
Humidity: 53%
Barometer: 29.68 inHg , 1005.1 hPa
Clouds: Mostly cloudy
Visibility: 10 miles , 16 km
Cloud details: Mostly cloudy 4300 ft
Mostly cloudy 5500 ft
2020/01/19 16:53 KMMK 191653Z AUTO 31012G17KT 10SM BKN043 BKN055 06/M03 A2968 RMK AO2 SLP052 T00561033
KPTW - Pottstown, Pennsylvania, USA
Distance from station: WSW 88mi, 141km
Updated: 01/19/2020 11:54am
Overcast
Overcast
 Wind from WNW
Wind: WNW 12 mph , 19 km/h, Gust: 24 mph , 39 km/h
Temperature: 36°F , 2°C
Wind Chill: 28°F , -2°C
Dew Point: 18°F , -8°C
Humidity: 48%
Barometer: 29.84 inHg , 1010.5 hPa
Clouds: Overcast
Visibility: 10 miles , 16 km
Cloud details: Overcast 3900 ft
2020/01/19 16:54 KPTW 191654Z AUTO 30010G21KT 10SM OVC039 02/M08 A2984 RMK AO2 PK WND 30028/1557 SLP105 T00171078 $
 
KSNC - Chester, Connecticut, USA
Distance from station: ENE 90mi, 146km
Updated: 01/19/2020 10:55am
NOT Current
Clear
Clear
 Wind from WNW
Wind: WNW 12 mph , 19 km/h, Gust: 18 mph , 30 km/h
Temperature: 45°F , 7°C
Wind Chill: 39°F , 4°C
Dew Point: 27°F , -3°C
Humidity: 49%
Barometer: 29.66 inHg , 1004.4 hPa
Clouds: Clear
Visibility: 10 miles , 16 km
2020/01/19 15:55 KSNC 191555Z AUTO 30010G16KT 10SM CLR 07/M03 A2966 RMK AO2
KPHL - Philadelphia, Pennsylvania, USA
Distance from station: SW 91mi, 146km
Updated: 01/19/2020 11:54am
Partly cloudy
Partly cloudy
 Wind from NW
Wind: NW 26 mph , 43 km/h, Gust: 33 mph , 54 km/h
Temperature: 43°F , 6°C
Wind Chill: 33°F , 1°C
Dew Point: 23°F , -5°C
Humidity: 46%
Barometer: 29.82 inHg , 1009.8 hPa
Clouds: Partly cloudy
Visibility: 10 miles , 16 km
Cloud details: Few Clouds 3500 ft
Partly cloudy 6000 ft
2020/01/19 16:54 KPHL 191654Z 31023G29KT 10SM FEW035 SCT060 06/M05 A2982 RMK AO2 PK WND 30029/1647 SLP099 T00561050 $
 
KAVP - Avoca/Wilkes B., Pennsylvania, USA
Distance from station: WNW 91mi, 147km
Updated: 01/19/2020 11:54am
Overcast
Overcast
 Wind from NW
Wind: NW 15 mph , 24 km/h
Temperature: 36°F , 2°C
Wind Chill: 27°F , -3°C
Dew Point: 19°F , -7°C
Humidity: 52%
Barometer: 29.77 inHg , 1008.1 hPa
Clouds: Overcast
Visibility: 10 miles , 16 km
Cloud details: Few Clouds 3900 ft
Few Clouds 5000 ft
Overcast 6500 ft
2020/01/19 16:54 KAVP 191654Z 31013KT 10SM FEW039 FEW050 OVC065 02/M07 A2977 RMK AO2 SLP087 T00221072
KHFD - Hartford/Brainar, Connecticut, USA
Distance from station: NE 96mi, 155km
Updated: 01/19/2020 11:53am
Mostly cloudy
Mostly cloudy
 Wind from N
Wind: N 6 mph , 9 km/h
Temperature: 37°F , 3°C
Wind Chill: 32°F , 0°C
Dew Point: 28°F , -2°C
Humidity: 70%
Barometer: 29.69 inHg , 1005.4 hPa
Clouds: Mostly cloudy
Visibility: 10 miles , 16 km
Cloud details: Few Clouds 4200 ft
Mostly cloudy 5000 ft
2020/01/19 16:53 KHFD 191653Z 35005KT 10SM FEW042 BKN050 03/M02 A2969 RMK AO2 SLP054 T00331017
 
KHTO - East Hampton, New York, USA
Distance from station: E 96mi, 155km
Updated: 01/19/2020 11:55am
Clear
Clear
 Wind from W
Wind: W 10 mph , 17 km/h, Gust: 20 mph , 31 km/h
Temperature: 43°F , 6°C
Wind Chill: 37°F , 3°C
Dew Point: 28°F , -2°C
Humidity: 57%
Barometer: 29.68 inHg , 1005.1 hPa
Clouds: Clear
Visibility: 10 miles , 16 km
2020/01/19 16:55 KHTO 191655Z AUTO 28009G17KT 10SM CLR 06/M02 A2968 RMK AO2 T00641016
KACY - Atlantic City, New Jersey, USA
Distance from station: SSW 99mi, 160km
Updated: 01/19/2020 11:54am
Mostly cloudy
Mostly cloudy
 Wind from WNW
Wind: WNW 25 mph , 41 km/h, Gust: 36 mph , 57 km/h
Temperature: 46°F , 8°C
Wind Chill: 37°F , 3°C
Dew Point: 28°F , -2°C
Humidity: 50%
Barometer: 29.80 inHg , 1009.1 hPa
Clouds: Mostly cloudy
Visibility: 10 miles , 16 km
Cloud details: Mostly cloudy 3900 ft
2020/01/19 16:54 KACY 191654Z 29022G31KT 10SM BKN039 08/M02 A2980 RMK AO2 PK WND 29031/1654 SLP091 T00781017 $